Dawn Merchant — MYIL6 — position and weather

sailwx.info

Track history (hours):
 
Tides and Currents Weather Stations Pressure Air Temp Water Temp Dewpoint Dewpoint Depression Visibility Wind Speed Wind Dir Waves Ship Positions

Dawn Merchant

Operator: Norfolk Line

Last reported at 2018-Jul-22 06:30 UTC. Time now 2018-Jul-22 06:53 UTC.
Position S 41°14' E 174°22'.

Length 180 m; draft 5.4 m.

Type: Passenger vessel. MMSI: 232197000.

Date/timePositionNaut miles runAvg speedWind from/ knotsBaromVisibWave heightAir tempDewpointWater temp
2018-Jul-22 06:30S 41°14' E 174°22'918.7
2018-Jul-22 06:00S 41°19' E 174°33'917.3
2018-Jul-22 05:30S 41°23' E 174°43'814.3
2018-Jul-22 04:57S 41°17' E 174°50'3 5.9
2018-Jul-22 04:30S 41°16' E 174°47'0 0.0
2018-Jul-22 03:59S 41°16' E 174°47'0 0.0
2018-Jul-22 03:30S 41°16' E 174°47'0 0.0
2018-Jul-22 03:00S 41°16' E 174°47'0 0.0
2018-Jul-22 02:30S 41°16' E 174°47'0 0.0
2018-Jul-22 02:00S 41°16' E 174°47'0 0.0
2018-Jul-22 01:30S 41°16' E 174°47'0 0.0
2018-Jul-22 01:00S 41°16' E 174°47'1 1.1
2018-Jul-22 00:30S 41°16' E 174°48'713.2
2018-Jul-22 00:00S 41°23' E 174°50'816.8
2018-Jul-21 23:30S 41°23' E 174°39'817.0
2018-Jul-21 23:00S 41°18' E 174°29'816.2
2018-Jul-21 22:30S 41°14' E 174°20'713.6
2018-Jul-21 22:00S 41°15' E 174°11'713.4
2018-Jul-21 21:30S 41°15' E 174°02'2 4.8
2018-Jul-21 21:00S 41°17' E 174°00'0 0.0
2018-Jul-21 20:30S 41°17' E 174°00'0 0.0
2018-Jul-21 19:59S 41°17' E 174°00'0 0.0
2018-Jul-21 19:29S 41°17' E 174°00'0 0.1
2018-Jul-21 19:00S 41°17' E 174°00'5 9.6
2018-Jul-21 18:31S 41°14' E 174°05'612.4
2018-Jul-21 18:00S 41°14' E 174°14'611.8
2018-Jul-21 17:30S 41°14' E 174°21'714.7
2018-Jul-21 17:00S 41°18' E 174°30'714.5
2018-Jul-21 16:31S 41°22' E 174°38'1112.7
2018-Jul-21 15:41S 41°17' E 174°50'212.6
2018-Jul-21 15:30S 41°16' E 174°47'0 0.3
2018-Jul-21 15:00S 41°16' E 174°47'0 0.0
2018-Jul-21 14:30S 41°16' E 174°47'0 0.0
2018-Jul-21 14:00S 41°16' E 174°47'0 0.0
2018-Jul-21 13:30S 41°16' E 174°47'2 4.3
2018-Jul-21 13:00S 41°16' E 174°50'714.8
2018-Jul-21 12:31S 41°23' E 174°48'917.4
2018-Jul-21 12:01S 41°22' E 174°36'919.0
2018-Jul-21 11:31S 41°17' E 174°26'815.5
2018-Jul-21 11:00S 41°14' E 174°16'612.7
2018-Jul-21 10:30S 41°14' E 174°08'713.0
2018-Jul-21 10:00S 41°17' E 174°00'0 0.1
2018-Jul-21 09:30S 41°17' E 174°00'0 0.0
2018-Jul-21 09:00S 41°17' E 174°00'0 0.0
2018-Jul-21 08:30S 41°17' E 174°00'0 0.0
2018-Jul-21 08:00S 41°17' E 174°00'0 0.0
2018-Jul-21 07:30S 41°17' E 174°00'0 0.0
2018-Jul-21 07:00S 41°17' E 174°00'1 1.1
2018-Jul-21 06:30S 41°17' E 174°01'713.7
2018-Jul-21 06:00S 41°13' E 174°09'611.2
2018-Jul-21 05:30S 41°14' E 174°16'713.0
2018-Jul-21 05:00S 41°16' E 174°25'816.2
2018-Jul-21 04:30S 41°20' E 174°34'816.5
2018-Jul-21 04:01S 41°23' E 174°44'813.2
2018-Jul-21 03:26S 41°17' E 174°50'2 4.1
2018-Jul-21 02:59S 41°16' E 174°47'0 0.0
2018-Jul-21 02:29S 41°16' E 174°47'0 0.0
2018-Jul-21 01:55S 41°16' E 174°47'0 0.0
2018-Jul-21 01:25S 41°16' E 174°47'0 0.0
2018-Jul-21 00:58S 41°16' E 174°47'2 5.1
2018-Jul-21 00:30S 41°16' E 174°50'815.5
2018-Jul-21 00:00S 41°23' E 174°47'1020.5
2018-Jul-20 23:30S 41°21' E 174°34'1122.5
2018-Jul-20 23:00S 41°14' E 174°22'713.1
2018-Jul-20 22:30S 41°14' E 174°13'613.0
2018-Jul-20 22:00S 41°14' E 174°04'4 7.3
2018-Jul-20 21:30S 41°17' E 174°01'0 0.5
2018-Jul-20 20:59S 41°17' E 174°00'0 0.0
2018-Jul-20 20:28S 41°17' E 174°00'0 0.0
2018-Jul-20 19:58S 41°17' E 174°00'0 0.0
2018-Jul-20 19:28S 41°17' E 174°00'0 0.2
2018-Jul-20 19:00S 41°17' E 174°00'510.0
2018-Jul-20 18:30S 41°14' E 174°06'612.3
2018-Jul-20 18:00S 41°14' E 174°14'611.7
2018-Jul-20 17:31S 41°14' E 174°22'815.7
2018-Jul-20 17:01S 41°19' E 174°31'815.0
2018-Jul-20 16:30S 41°22' E 174°39'1012.8
2018-Jul-20 15:44S 41°17' E 174°50'211.0
2018-Jul-20 15:31S 41°16' E 174°47'0 0.3
2018-Jul-20 15:01S 41°16' E 174°47'0 0.0
2018-Jul-20 14:31S 41°16' E 174°47'0 0.0
2018-Jul-20 14:00S 41°16' E 174°47'0 0.0
2018-Jul-20 13:31S 41°16' E 174°47'4 7.7
2018-Jul-20 12:56S 41°19' E 174°51'613.6
2018-Jul-20 12:30S 41°23' E 174°46'815.5
2018-Jul-20 12:00S 41°22' E 174°36'816.9
2018-Jul-20 11:30S 41°17' E 174°27'815.6
2018-Jul-20 11:00S 41°13' E 174°18'713.1
2018-Jul-20 10:30S 41°15' E 174°09'612.6
2018-Jul-20 10:00S 41°16' E 174°01'1 2.1
2018-Jul-20 09:30S 41°17' E 174°00'0 0.0
2018-Jul-20 09:00S 41°17' E 174°00'0 0.0
2018-Jul-20 08:30S 41°17' E 174°00'0 0.0
2018-Jul-20 08:00S 41°17' E 174°00'0 0.0
2018-Jul-20 07:30S 41°17' E 174°00'0 0.0
2018-Jul-20 07:00S 41°17' E 174°00'1 2.3
2018-Jul-20 06:30S 41°16' E 174°01'713.0
2018-Jul-20 06:00S 41°14' E 174°09'611.6
2018-Jul-20 05:30S 41°13' E 174°17'917.3
2018-Jul-20 05:00S 41°17' E 174°27'1020.0
2018-Jul-20 04:30S 41°22' E 174°39'815.6
2018-Jul-20 04:00S 41°22' E 174°49'611.9
2018-Jul-20 03:29S 41°16' E 174°47'0 0.2
2018-Jul-20 02:55S 41°16' E 174°47'0 0.0
2018-Jul-20 02:23S 41°16' E 174°47'0 0.1
2018-Jul-20 01:57S 41°16' E 174°47'0 0.0
2018-Jul-20 01:21S 41°16' E 174°47'0 0.0
2018-Jul-20 00:56S 41°16' E 174°47'1 2.9
2018-Jul-20 00:29S 41°16' E 174°49'715.0
2018-Jul-20 00:00S 41°23' E 174°49'917.6
2018-Jul-19 23:31S 41°23' E 174°38'917.4
2018-Jul-19 23:01S 41°18' E 174°28'815.9
2018-Jul-19 22:30S 41°13' E 174°19'713.2
2018-Jul-19 22:01S 41°15' E 174°11'612.9
2018-Jul-19 21:31S 41°15' E 174°02'3 4.8
2018-Jul-19 20:58S 41°17' E 174°00'0 0.0
2018-Jul-19 20:28S 41°17' E 174°00'0 0.0
2018-Jul-19 19:58S 41°17' E 174°00'0 0.0
2018-Jul-19 19:30S 41°17' E 174°00'0 0.2
2018-Jul-19 19:00S 41°17' E 174°00'5 9.8
2018-Jul-19 18:30S 41°14' E 174°06'612.3
2018-Jul-19 18:00S 41°14' E 174°14'612.2
2018-Jul-19 17:30S 41°14' E 174°22'816.2
2018-Jul-19 17:00S 41°19' E 174°31'815.2
2018-Jul-19 16:31S 41°22' E 174°40'914.8
2018-Jul-19 15:54S 41°19' E 174°51'411.0
2018-Jul-19 15:30S 41°16' E 174°47'0 0.1
2018-Jul-19 15:00S 41°16' E 174°47'0 0.0
2018-Jul-19 14:00S 41°16' E 174°47'0 0.0
2018-Jul-19 13:30S 41°16' E 174°47'3 7.1
2018-Jul-19 13:01S 41°17' E 174°51'714.0
2018-Jul-19 12:30S 41°24' E 174°47'714.8
2018-Jul-19 12:00S 41°22' E 174°37'815.8
2018-Jul-19 11:31S 41°18' E 174°28'816.8
2018-Jul-19 11:00S 41°13' E 174°19'612.8
2018-Jul-19 10:30S 41°15' E 174°11'612.6
2018-Jul-19 10:01S 41°15' E 174°03'3 5.6
2018-Jul-19 09:30S 41°17' E 174°00'0 0.0
2018-Jul-19 09:00S 41°17' E 174°00'0 0.0
2018-Jul-19 08:30S 41°17' E 174°00'0 0.0
2018-Jul-19 08:00S 41°17' E 174°00'0 0.0
2018-Jul-19 07:30S 41°17' E 174°00'0 0.0
2018-Jul-19 07:00S 41°17' E 174°00'1 1.5
2018-Jul-19 06:30S 41°16' E 174°01'612.8
2018-Jul-19 06:00S 41°14' E 174°08'611.4
2018-Jul-19 05:30S 41°14' E 174°16'713.9
2018-Jul-19 05:00S 41°16' E 174°25'917.4
2018-Jul-19 04:30S 41°20' E 174°35'815.5
2018-Jul-19 04:01S 41°23' E 174°45'713.8
2018-Jul-19 03:29S 41°17' E 174°50'3 5.2
2018-Jul-19 02:59S 41°16' E 174°47'0 0.0
2018-Jul-19 02:28S 41°16' E 174°47'0 0.0
2018-Jul-19 01:58S 41°16' E 174°47'0 0.0
2018-Jul-19 01:25S 41°16' E 174°47'0 0.0
2018-Jul-19 00:57S 41°16' E 174°47'1 1.6
2018-Jul-19 00:30S 41°16' E 174°48'714.1
2018-Jul-19 00:01S 41°23' E 174°50'917.8
2018-Jul-18 23:31S 41°23' E 174°38'917.3
2018-Jul-18 23:01S 41°18' E 174°28'817.0
2018-Jul-18 22:31S 41°13' E 174°19'713.4
2018-Jul-18 22:01S 41°15' E 174°11'612.9
2018-Jul-18 21:30S 41°15' E 174°02'2 4.7
2018-Jul-18 21:00S 41°17' E 174°00'0 0.0
2018-Jul-18 20:30S 41°17' E 174°00'0 0.0
2018-Jul-18 19:59S 41°17' E 174°00'0 0.0
2018-Jul-18 19:29S 41°17' E 174°00'0 0.3
2018-Jul-18 19:00S 41°17' E 174°01'612.3
2018-Jul-18 18:30S 41°14' E 174°07'612.1
2018-Jul-18 18:00S 41°14' E 174°15'713.3
2018-Jul-18 17:30S 41°15' E 174°24'816.7
2018-Jul-18 17:00S 41°20' E 174°33'713.6
2018-Jul-18 16:30S 41°23' E 174°42'814.4
2018-Jul-18 15:57S 41°19' E 174°51'4 9.0
2018-Jul-18 15:29S 41°16' E 174°47'0 0.0
2018-Jul-18 14:58S 41°16' E 174°47'0 0.0
2018-Jul-18 14:27S 41°16' E 174°47'0 0.0
2018-Jul-18 13:30S 41°16' E 174°47'610.4
2018-Jul-18 12:53S 41°22' E 174°50'614.5
2018-Jul-18 12:30S 41°24' E 174°43'715.0
2018-Jul-18 12:01S 41°21' E 174°34'816.7
2018-Jul-18 11:31S 41°16' E 174°25'1212.2
2018-Jul-18 10:30S 41°14' E 174°09'713.7
2018-Jul-18 10:00S 41°17' E 174°01'0 0.5
2018-Jul-18 09:31S 41°17' E 174°00'0 0.0
2018-Jul-18 09:01S 41°17' E 174°00'0 0.0
2018-Jul-18 08:31S 41°17' E 174°00'0 0.0
2018-Jul-18 08:01S 41°17' E 174°00'0 0.0
2018-Jul-18 07:30S 41°17' E 174°00'0 0.0
2018-Jul-18 07:01S 41°17' E 174°00'0 0.9
2018-Jul-18 06:31S 41°17' E 174°01'713.4
2018-Jul-18 06:01S 41°14' E 174°09'611.4
2018-Jul-18 05:31S 41°14' E 174°16'714.2
2018-Jul-18 05:00S 41°16' E 174°25'816.5
2018-Jul-18 04:30S 41°20' E 174°34'714.9
2018-Jul-18 04:00S 41°23' E 174°44'814.0
2018-Jul-18 03:27S 41°17' E 174°50'3 5.5
2018-Jul-18 02:59S 41°16' E 174°47'0 0.0
2018-Jul-18 02:29S 41°16' E 174°47'0 0.0
2018-Jul-18 01:56S 41°16' E 174°47'0 0.0
2018-Jul-18 01:28S 41°16' E 174°47'0 0.0
2018-Jul-18 00:58S 41°16' E 174°47'2 3.9
2018-Jul-18 00:30S 41°16' E 174°50'713.1
2018-Jul-18 00:00S 41°23' E 174°50'816.8
2018-Jul-17 23:30S 41°23' E 174°39'817.0
2018-Jul-17 23:00S 41°19' E 174°29'918.3
2018-Jul-17 22:30S 41°13' E 174°19'612.6
2018-Jul-17 22:00S 41°15' E 174°11'612.3
2018-Jul-17 21:31S 41°15' E 174°03'3 5.7
2018-Jul-17 20:58S 41°17' E 174°00'0 0.0
2018-Jul-17 20:28S 41°17' E 174°00'0 0.0
2018-Jul-17 20:00S 41°17' E 174°00'0 0.0
2018-Jul-17 19:30S 41°17' E 174°00'0 0.3
2018-Jul-17 19:00S 41°17' E 174°01'510.2
2018-Jul-17 18:30S 41°14' E 174°06'612.6
2018-Jul-17 18:00S 41°14' E 174°14'612.0
2018-Jul-17 17:31S 41°15' E 174°22'714.3
2018-Jul-17 17:01S 41°19' E 174°30'714.3
2018-Jul-17 16:31S 41°22' E 174°38'815.4
2018-Jul-17 16:00S 41°22' E 174°49'612.4
2018-Jul-17 15:31S 41°16' E 174°48'0 0.8
2018-Jul-17 15:00S 41°16' E 174°47'0 0.0
2018-Jul-17 14:30S 41°16' E 174°47'0 0.0
2018-Jul-17 14:00S 41°16' E 174°47'0 0.0
2018-Jul-17 13:30S 41°16' E 174°47'4 7.7
2018-Jul-17 12:56S 41°19' E 174°51'613.0
2018-Jul-17 12:31S 41°24' E 174°47'816.0
2018-Jul-17 12:01S 41°22' E 174°36'917.9
2018-Jul-17 11:30S 41°17' E 174°26'815.0
2018-Jul-17 11:01S 41°13' E 174°17'612.7
2018-Jul-17 10:30S 41°15' E 174°09'612.1
2018-Jul-17 10:00S 41°16' E 174°01'1 2.6
2018-Jul-17 09:29S 41°17' E 174°00'0 0.0
2018-Jul-17 08:59S 41°17' E 174°00'0 0.0
2018-Jul-17 08:28S 41°17' E 174°00'0 0.0
2018-Jul-17 07:58S 41°17' E 174°00'0 0.0
2018-Jul-17 07:28S 41°17' E 174°00'0 0.0
2018-Jul-17 07:00S 41°17' E 174°00'3 5.3
2018-Jul-17 06:31S 41°15' E 174°02'612.3
2018-Jul-17 06:01S 41°15' E 174°10'713.7
2018-Jul-17 05:31S 41°13' E 174°19'918.6
2018-Jul-17 05:01S 41°18' E 174°29'815.7
2018-Jul-17 04:31S 41°22' E 174°38'815.7
2018-Jul-17 04:00S 41°22' E 174°49'612.5
2018-Jul-17 03:30S 41°16' E 174°48'0 0.4
2018-Jul-17 02:58S 41°16' E 174°47'0 0.0
2018-Jul-17 02:28S 41°16' E 174°47'0 0.0
2018-Jul-17 01:58S 41°16' E 174°47'0 0.0
2018-Jul-17 01:30S 41°16' E 174°47'0 0.0
2018-Jul-17 01:00S 41°16' E 174°47'4 7.5
2018-Jul-17 00:25S 41°19' E 174°51'1213.0
2018-Jul-16 23:30S 41°21' E 174°35'714.4
2018-Jul-16 23:00S 41°18' E 174°28'816.4
2018-Jul-16 22:31S 41°13' E 174°19'713.0
2018-Jul-16 22:00S 41°15' E 174°11'612.4
2018-Jul-16 21:31S 41°15' E 174°03'3 5.4
2018-Jul-16 21:00S 41°17' E 174°00'0 0.0
2018-Jul-16 20:30S 41°17' E 174°00'0 0.0
2018-Jul-16 20:00S 41°17' E 174°00'0 0.0
2018-Jul-16 19:30S 41°17' E 174°00'2 3.6
2018-Jul-16 19:00S 41°15' E 174°02'612.2
2018-Jul-16 18:30S 41°15' E 174°09'714.2
2018-Jul-16 18:00S 41°13' E 174°19'816.4
2018-Jul-16 17:30S 41°17' E 174°28'815.0
2018-Jul-16 17:00S 41°21' E 174°36'815.5
2018-Jul-16 16:30S 41°23' E 174°46'612.8
2018-Jul-16 16:00S 41°17' E 174°50'2 3.9
2018-Jul-16 15:30S 41°16' E 174°47'0 0.0
2018-Jul-16 15:00S 41°16' E 174°47'0 0.0
2018-Jul-16 14:30S 41°16' E 174°47'0 0.0
2018-Jul-16 13:59S 41°16' E 174°47'0 0.5
2018-Jul-16 13:30S 41°16' E 174°47'610.1
2018-Jul-16 12:55S 41°22' E 174°50'615.9
2018-Jul-16 12:30S 41°23' E 174°42'1019.1
2018-Jul-16 12:00S 41°19' E 174°31'918.5
2018-Jul-16 11:30S 41°14' E 174°21'712.9
2018-Jul-16 11:00S 41°15' E 174°12'612.7
2018-Jul-16 10:31S 41°15' E 174°04'4 7.1
2018-Jul-16 10:01S 41°17' E 174°00'0 0.0
2018-Jul-16 09:30S 41°17' E 174°00'0 0.0
2018-Jul-16 09:01S 41°17' E 174°00'0 0.0
2018-Jul-16 08:31S 41°17' E 174°00'0 0.0
2018-Jul-16 08:00S 41°17' E 174°00'0 0.0
2018-Jul-16 07:31S 41°17' E 174°00'0 0.0
2018-Jul-16 07:01S 41°17' E 174°00'2 3.3
2018-Jul-16 06:30S 41°16' E 174°02'612.1
2018-Jul-16 06:01S 41°15' E 174°09'714.5
2018-Jul-16 05:31S 41°13' E 174°19'815.4
2018-Jul-16 05:00S 41°17' E 174°27'714.5
2018-Jul-16 04:30S 41°21' E 174°35'612.2
2018-Jul-16 04:00S 41°23' E 174°43'813.8
2018-Jul-16 03:25S 41°17' E 174°51'3 6.4
2018-Jul-16 02:59S 41°16' E 174°47'0 0.0
2018-Jul-16 02:28S 41°16' E 174°47'0 0.0
2018-Jul-16 01:55S 41°16' E 174°47'0 0.0
2018-Jul-16 01:28S 41°16' E 174°47'0 0.0
2018-Jul-16 00:58S 41°16' E 174°47'0 0.0
2018-Jul-16 00:27S 41°16' E 174°47'0 0.0
2018-Jul-16 00:00S 41°16' E 174°47'0 0.0
2018-Jul-15 23:27S 41°16' E 174°47'0 0.0
2018-Jul-15 22:59S 41°16' E 174°47'0 0.0
2018-Jul-15 22:29S 41°16' E 174°47'0 0.0
2018-Jul-15 21:56S 41°16' E 174°47'0 0.0
2018-Jul-15 21:25S 41°16' E 174°47'0 0.0
2018-Jul-15 20:58S 41°16' E 174°47'2 2.7
2018-Jul-15 20:19S 41°15' E 174°50'0 0.2
2018-Jul-15 19:58S 41°16' E 174°50'0 0.1
2018-Jul-15 19:30S 41°16' E 174°50'0 0.0
2018-Jul-15 19:00S 41°16' E 174°50'0 0.0
2018-Jul-15 18:30S 41°16' E 174°50'0 0.0
2018-Jul-15 17:59S 41°16' E 174°50'0 0.0
2018-Jul-15 17:29S 41°16' E 174°50'0 0.0
2018-Jul-15 16:59S 41°16' E 174°50'0 0.0
2018-Jul-15 16:29S 41°16' E 174°50'0 0.0
2018-Jul-15 15:58S 41°16' E 174°50'0 0.0
2018-Jul-15 15:28S 41°16' E 174°50'0 0.0
2018-Jul-15 14:59S 41°16' E 174°50'2 3.8
2018-Jul-15 14:30S 41°16' E 174°47'0 0.3
2018-Jul-15 14:00S 41°16' E 174°47'2 3.5
2018-Jul-15 13:30S 41°16' E 174°50'611.2
2018-Jul-15 13:00S 41°22' E 174°50'511.0
2018-Jul-15 12:30S 41°24' E 174°43'713.4
2018-Jul-15 12:01S 41°21' E 174°35'713.4
2018-Jul-15 11:30S 41°18' E 174°27'713.5
2018-Jul-15 11:01S 41°14' E 174°20'612.9
2018-Jul-15 10:30S 41°15' E 174°12'612.9
2018-Jul-15 10:01S 41°15' E 174°03'3 6.1
2018-Jul-15 09:29S 41°17' E 174°00'0 0.0
2018-Jul-15 08:59S 41°17' E 174°00'0 0.0
2018-Jul-15 08:29S 41°17' E 174°00'0 0.4
2018-Jul-15 08:00S 41°17' E 174°00'713.2
2018-Jul-15 07:30S 41°14' E 174°08'713.2
2018-Jul-15 07:00S 41°13' E 174°17'816.4
2018-Jul-15 06:30S 41°17' E 174°27'917.2
2018-Jul-15 06:00S 41°21' E 174°36'917.3
2018-Jul-15 05:30S 41°22' E 174°48'611.5
2018-Jul-15 05:00S 41°17' E 174°49'2 3.0
2018-Jul-15 04:29S 41°16' E 174°47'0 0.0
2018-Jul-15 03:59S 41°16' E 174°47'0 0.0
2018-Jul-15 03:29S 41°16' E 174°47'0 0.0
2018-Jul-15 02:59S 41°16' E 174°47'0 0.0
2018-Jul-15 02:28S 41°16' E 174°47'0 0.0
2018-Jul-15 01:58S 41°16' E 174°47'0 0.0
2018-Jul-15 01:28S 41°16' E 174°47'0 0.0
2018-Jul-15 01:00S 41°16' E 174°47'3 5.4
2018-Jul-15 00:31S 41°17' E 174°51'714.4
2018-Jul-15 00:00S 41°24' E 174°48'816.8
2018-Jul-14 23:30S 41°22' E 174°37'816.2
2018-Jul-14 23:00S 41°18' E 174°28'815.8
2018-Jul-14 22:31S 41°13' E 174°20'714.0
2018-Jul-14 22:00S 41°15' E 174°11'612.7
2018-Jul-14 21:30S 41°15' E 174°02'2 4.8
2018-Jul-14 21:00S 41°17' E 174°00'0 0.0
2018-Jul-14 20:30S 41°17' E 174°00'0 0.0
2018-Jul-14 20:00S 41°17' E 174°00'0 0.0
2018-Jul-14 19:30S 41°17' E 174°00'0 0.5
2018-Jul-14 19:00S 41°17' E 174°01'510.4
2018-Jul-14 18:30S 41°14' E 174°06'713.6
2018-Jul-14 18:00S 41°14' E 174°15'713.8
2018-Jul-14 17:30S 41°15' E 174°24'815.9
2018-Jul-14 17:00S 41°20' E 174°33'816.3
2018-Jul-14 16:30S 41°23' E 174°43'813.2
2018-Jul-14 15:55S 41°18' E 174°51'3 8.1
2018-Jul-14 15:30S 41°16' E 174°47'0 0.0
2018-Jul-14 15:00S 41°16' E 174°47'0 0.0
2018-Jul-14 14:30S 41°16' E 174°47'3 2.7
2018-Jul-14 13:30S 41°17' E 174°51'714.1
2018-Jul-14 13:00S 41°23' E 174°49'916.8
2018-Jul-14 12:30S 41°23' E 174°38'816.7
2018-Jul-14 12:00S 41°18' E 174°28'815.3
2018-Jul-14 11:30S 41°14' E 174°20'815.2
2018-Jul-14 11:00S 41°15' E 174°10'612.7
2018-Jul-14 10:30S 41°15' E 174°02'2 4.1
2018-Jul-14 10:00S 41°17' E 174°00'0 0.0
2018-Jul-14 09:30S 41°17' E 174°00'0 0.0
2018-Jul-14 09:00S 41°17' E 174°00'0 0.0
2018-Jul-14 08:30S 41°17' E 174°00'0 0.0
2018-Jul-14 08:00S 41°17' E 174°00'0 0.0
2018-Jul-14 07:30S 41°17' E 174°00'0 0.0
2018-Jul-14 07:00S 41°17' E 174°00'2 3.4
2018-Jul-14 06:30S 41°16' E 174°02'612.0
2018-Jul-14 06:01S 41°15' E 174°09'815.4
2018-Jul-14 05:30S 41°13' E 174°19'714.9
2018-Jul-14 05:00S 41°17' E 174°28'714.3
2018-Jul-14 04:31S 41°21' E 174°36'917.4
2018-Jul-14 04:00S 41°22' E 174°47'612.3
2018-Jul-14 03:31S 41°16' E 174°49'2 3.1
2018-Jul-14 03:00S 41°16' E 174°47'0 0.0
2018-Jul-14 02:30S 41°16' E 174°47'0 0.0
2018-Jul-14 02:00S 41°16' E 174°47'0 0.0
2018-Jul-14 01:30S 41°16' E 174°47'0 0.0
2018-Jul-14 01:00S 41°16' E 174°47'3 5.5
2018-Jul-14 00:29S 41°17' E 174°51'715.0
2018-Jul-14 00:00S 41°23' E 174°48'918.7
2018-Jul-13 23:30S 41°22' E 174°36'917.9
2018-Jul-13 23:01S 41°17' E 174°26'815.4
2018-Jul-13 22:31S 41°14' E 174°16'713.1
2018-Jul-13 22:00S 41°14' E 174°08'612.6
2018-Jul-13 21:30S 41°17' E 174°00'0 0.0
2018-Jul-13 21:00S 41°17' E 174°00'0 0.0
2018-Jul-13 20:30S 41°17' E 174°00'0 0.0
2018-Jul-13 19:59S 41°17' E 174°00'0 0.0
2018-Jul-13 19:29S 41°17' E 174°00'1 1.6
2018-Jul-13 19:00S 41°16' E 174°01'713.2
2018-Jul-13 18:31S 41°13' E 174°09'713.5
2018-Jul-13 18:00S 41°13' E 174°18'917.6
2018-Jul-13 17:31S 41°17' E 174°28'918.3
2018-Jul-13 17:00S 41°22' E 174°38'1015.7
2018-Jul-13 16:22S 41°19' E 174°51'411.7
2018-Jul-13 16:01S 41°16' E 174°47'0 0.3
2018-Jul-13 15:30S 41°16' E 174°47'0 0.0
2018-Jul-13 15:01S 41°16' E 174°47'0 0.0
2018-Jul-13 14:30S 41°16' E 174°47'0 0.0
2018-Jul-13 13:30S 41°16' E 174°47'4 8.2
2018-Jul-13 12:58S 41°19' E 174°51'612.5
2018-Jul-13 12:30S 41°24' E 174°46'815.9
2018-Jul-13 12:00S 41°22' E 174°36'918.1
2018-Jul-13 11:30S 41°17' E 174°26'714.8
2018-Jul-13 11:00S 41°13' E 174°17'713.7
2018-Jul-13 10:30S 41°14' E 174°08'713.0
2018-Jul-13 10:00S 41°17' E 174°00'0 0.0
2018-Jul-13 09:28S 41°17' E 174°00'0 0.0
2018-Jul-13 09:00S 41°17' E 174°00'0 0.0
2018-Jul-13 08:30S 41°17' E 174°00'0 0.0
2018-Jul-13 08:00S 41°17' E 174°00'0 0.0
2018-Jul-13 07:29S 41°17' E 174°00'0 0.0
2018-Jul-13 07:00S 41°17' E 174°00'3 6.7
2018-Jul-13 06:30S 41°15' E 174°03'612.5
2018-Jul-13 06:00S 41°14' E 174°12'714.4
2018-Jul-13 05:30S 41°14' E 174°21'815.6
2018-Jul-13 05:00S 41°18' E 174°30'714.7
2018-Jul-13 04:31S 41°22' E 174°38'815.5
2018-Jul-13 04:01S 41°22' E 174°49'612.3
2018-Jul-13 03:30S 41°16' E 174°48'0 0.6
2018-Jul-13 02:59S 41°16' E 174°47'0 0.0
2018-Jul-13 02:29S 41°16' E 174°47'0 0.0
2018-Jul-13 01:58S 41°16' E 174°47'0 0.0
2018-Jul-13 01:28S 41°16' E 174°47'0 0.0
2018-Jul-13 00:58S 41°16' E 174°47'1 2.3
2018-Jul-13 00:30S 41°16' E 174°49'713.1
2018-Jul-13 00:00S 41°23' E 174°50'815.2
2018-Jul-12 23:30S 41°23' E 174°40'917.3
2018-Jul-12 23:00S 41°19' E 174°30'917.5
2018-Jul-12 22:30S 41°14' E 174°20'714.9
2018-Jul-12 22:00S 41°15' E 174°11'612.7
2018-Jul-12 21:30S 41°15' E 174°02'2 4.6
2018-Jul-12 21:00S 41°17' E 174°00'0 0.0
2018-Jul-12 20:30S 41°17' E 174°00'0 0.0
2018-Jul-12 20:00S 41°17' E 174°00'0 0.0
2018-Jul-12 19:29S 41°17' E 174°00'0 0.2
2018-Jul-12 18:59S 41°17' E 174°00'4 8.9
2018-Jul-12 18:30S 41°14' E 174°05'713.3
2018-Jul-12 18:00S 41°14' E 174°13'714.6
2018-Jul-12 17:30S 41°15' E 174°23'917.6
2018-Jul-12 17:00S 41°20' E 174°33'1019.1
2018-Jul-12 16:30S 41°23' E 174°45'713.6
2018-Jul-12 16:00S 41°17' E 174°50'3 4.2
2018-Jul-12 15:23S 41°16' E 174°47'0 0.0
2018-Jul-12 14:58S 41°16' E 174°47'0 0.0
2018-Jul-12 14:28S 41°16' E 174°47'0 0.0
2018-Jul-12 13:58S 41°16' E 174°47'0 0.0
2018-Jul-12 13:30S 41°16' E 174°47'4 7.3
2018-Jul-12 13:00S 41°18' E 174°51'713.4
2018-Jul-12 12:30S 41°24' E 174°47'816.9
2018-Jul-12 12:00S 41°22' E 174°36'918.1
2018-Jul-12 11:30S 41°17' E 174°26'714.6
2018-Jul-12 11:01S 41°13' E 174°17'713.9
2018-Jul-12 10:31S 41°14' E 174°08'612.6
2018-Jul-12 10:01S 41°17' E 174°00'0 0.0
2018-Jul-12 09:31S 41°17' E 174°00'0 0.0
2018-Jul-12 09:01S 41°17' E 174°00'0 0.0
2018-Jul-12 08:31S 41°17' E 174°00'0 0.0
2018-Jul-12 08:01S 41°17' E 174°00'0 0.0
2018-Jul-12 07:30S 41°17' E 174°00'0 0.0
2018-Jul-12 07:01S 41°17' E 174°00'2 4.8
2018-Jul-12 06:31S 41°15' E 174°02'  
Track history (hours):
 
Tides and Currents Weather Stations Pressure Air Temp Water Temp Dewpoint Dewpoint Depression Visibility Wind Speed Wind Dir Waves Ship Positions

Dawn Merchant

Operator: Norfolk Line

Last reported at 2018-Jul-22 06:30 UTC. Time now 2018-Jul-22 06:53 UTC.
Position S 41°14' E 174°22'.

Length 180 m; draft 5.4 m.

Type: Passenger vessel. MMSI: 232197000.

Date/timePositionNaut miles runAvg speedWind from/ knotsBaromVisibWave heightAir tempDewpointWater temp
2018-Jul-22 06:30S 41°14' E 174°22'918.7
2018-Jul-22 06:00S 41°19' E 174°33'917.3
2018-Jul-22 05:30S 41°23' E 174°43'814.3
2018-Jul-22 04:57S 41°17' E 174°50'3 5.9
2018-Jul-22 04:30S 41°16' E 174°47'0 0.0
2018-Jul-22 03:59S 41°16' E 174°47'0 0.0
2018-Jul-22 03:30S 41°16' E 174°47'0 0.0
2018-Jul-22 03:00S 41°16' E 174°47'0 0.0
2018-Jul-22 02:30S 41°16' E 174°47'0 0.0
2018-Jul-22 02:00S 41°16' E 174°47'0 0.0
2018-Jul-22 01:30S 41°16' E 174°47'0 0.0
2018-Jul-22 01:00S 41°16' E 174°47'1 1.1
2018-Jul-22 00:30S 41°16' E 174°48'713.2
2018-Jul-22 00:00S 41°23' E 174°50'816.8
2018-Jul-21 23:30S 41°23' E 174°39'817.0
2018-Jul-21 23:00S 41°18' E 174°29'816.2
2018-Jul-21 22:30S 41°14' E 174°20'713.6
2018-Jul-21 22:00S 41°15' E 174°11'713.4
2018-Jul-21 21:30S 41°15' E 174°02'2 4.8
2018-Jul-21 21:00S 41°17' E 174°00'0 0.0
2018-Jul-21 20:30S 41°17' E 174°00'0 0.0
2018-Jul-21 19:59S 41°17' E 174°00'0 0.0
2018-Jul-21 19:29S 41°17' E 174°00'0 0.1
2018-Jul-21 19:00S 41°17' E 174°00'5 9.6
2018-Jul-21 18:31S 41°14' E 174°05'612.4
2018-Jul-21 18:00S 41°14' E 174°14'611.8
2018-Jul-21 17:30S 41°14' E 174°21'714.7
2018-Jul-21 17:00S 41°18' E 174°30'714.5
2018-Jul-21 16:31S 41°22' E 174°38'1112.7
2018-Jul-21 15:41S 41°17' E 174°50'212.6
2018-Jul-21 15:30S 41°16' E 174°47'0 0.3
2018-Jul-21 15:00S 41°16' E 174°47'0 0.0
2018-Jul-21 14:30S 41°16' E 174°47'0 0.0
2018-Jul-21 14:00S 41°16' E 174°47'0 0.0
2018-Jul-21 13:30S 41°16' E 174°47'2 4.3
2018-Jul-21 13:00S 41°16' E 174°50'714.8
2018-Jul-21 12:31S 41°23' E 174°48'917.4
2018-Jul-21 12:01S 41°22' E 174°36'919.0
2018-Jul-21 11:31S 41°17' E 174°26'815.5
2018-Jul-21 11:00S 41°14' E 174°16'612.7
2018-Jul-21 10:30S 41°14' E 174°08'713.0
2018-Jul-21 10:00S 41°17' E 174°00'0 0.1
2018-Jul-21 09:30S 41°17' E 174°00'0 0.0
2018-Jul-21 09:00S 41°17' E 174°00'0 0.0
2018-Jul-21 08:30S 41°17' E 174°00'0 0.0
2018-Jul-21 08:00S 41°17' E 174°00'0 0.0
2018-Jul-21 07:30S 41°17' E 174°00'0 0.0
2018-Jul-21 07:00S 41°17' E 174°00'1 1.1
2018-Jul-21 06:30S 41°17' E 174°01'713.7
2018-Jul-21 06:00S 41°13' E 174°09'611.2
2018-Jul-21 05:30S 41°14' E 174°16'713.0
2018-Jul-21 05:00S 41°16' E 174°25'816.2
2018-Jul-21 04:30S 41°20' E 174°34'816.5
2018-Jul-21 04:01S 41°23' E 174°44'813.2
2018-Jul-21 03:26S 41°17' E 174°50'2 4.1
2018-Jul-21 02:59S 41°16' E 174°47'0 0.0
2018-Jul-21 02:29S 41°16' E 174°47'0 0.0
2018-Jul-21 01:55S 41°16' E 174°47'0 0.0
2018-Jul-21 01:25S 41°16' E 174°47'0 0.0
2018-Jul-21 00:58S 41°16' E 174°47'2 5.1
2018-Jul-21 00:30S 41°16' E 174°50'815.5
2018-Jul-21 00:00S 41°23' E 174°47'1020.5
2018-Jul-20 23:30S 41°21' E 174°34'1122.5
2018-Jul-20 23:00S 41°14' E 174°22'713.1
2018-Jul-20 22:30S 41°14' E 174°13'613.0
2018-Jul-20 22:00S 41°14' E 174°04'4 7.3
2018-Jul-20 21:30S 41°17' E 174°01'0 0.5
2018-Jul-20 20:59S 41°17' E 174°00'0 0.0
2018-Jul-20 20:28S 41°17' E 174°00'0 0.0
2018-Jul-20 19:58S 41°17' E 174°00'0 0.0
2018-Jul-20 19:28S 41°17' E 174°00'0 0.2
2018-Jul-20 19:00S 41°17' E 174°00'510.0
2018-Jul-20 18:30S 41°14' E 174°06'612.3
2018-Jul-20 18:00S 41°14' E 174°14'611.7
2018-Jul-20 17:31S 41°14' E 174°22'815.7
2018-Jul-20 17:01S 41°19' E 174°31'815.0
2018-Jul-20 16:30S 41°22' E 174°39'1012.8
2018-Jul-20 15:44S 41°17' E 174°50'211.0
2018-Jul-20 15:31S 41°16' E 174°47'0 0.3
2018-Jul-20 15:01S 41°16' E 174°47'0 0.0
2018-Jul-20 14:31S 41°16' E 174°47'0 0.0
2018-Jul-20 14:00S 41°16' E 174°47'0 0.0
2018-Jul-20 13:31S 41°16' E 174°47'4 7.7
2018-Jul-20 12:56S 41°19' E 174°51'613.6
2018-Jul-20 12:30S 41°23' E 174°46'815.5
2018-Jul-20 12:00S 41°22' E 174°36'816.9
2018-Jul-20 11:30S 41°17' E 174°27'815.6
2018-Jul-20 11:00S 41°13' E 174°18'713.1
2018-Jul-20 10:30S 41°15' E 174°09'612.6
2018-Jul-20 10:00S 41°16' E 174°01'1 2.1
2018-Jul-20 09:30S 41°17' E 174°00'0 0.0
2018-Jul-20 09:00S 41°17' E 174°00'0 0.0
2018-Jul-20 08:30S 41°17' E 174°00'0 0.0
2018-Jul-20 08:00S 41°17' E 174°00'0 0.0
2018-Jul-20 07:30S 41°17' E 174°00'0 0.0
2018-Jul-20 07:00S 41°17' E 174°00'1 2.3
2018-Jul-20 06:30S 41°16' E 174°01'713.0
2018-Jul-20 06:00S 41°14' E 174°09'611.6
2018-Jul-20 05:30S 41°13' E 174°17'917.3
2018-Jul-20 05:00S 41°17' E 174°27'1020.0
2018-Jul-20 04:30S 41°22' E 174°39'815.6
2018-Jul-20 04:00S 41°22' E 174°49'611.9
2018-Jul-20 03:29S 41°16' E 174°47'0 0.2
2018-Jul-20 02:55S 41°16' E 174°47'0 0.0
2018-Jul-20 02:23S 41°16' E 174°47'0 0.1
2018-Jul-20 01:57S 41°16' E 174°47'0 0.0
2018-Jul-20 01:21S 41°16' E 174°47'0 0.0
2018-Jul-20 00:56S 41°16' E 174°47'1 2.9
2018-Jul-20 00:29S 41°16' E 174°49'715.0
2018-Jul-20 00:00S 41°23' E 174°49'917.6
2018-Jul-19 23:31S 41°23' E 174°38'917.4
2018-Jul-19 23:01S 41°18' E 174°28'815.9
2018-Jul-19 22:30S 41°13' E 174°19'713.2
2018-Jul-19 22:01S 41°15' E 174°11'612.9
2018-Jul-19 21:31S 41°15' E 174°02'3 4.8
2018-Jul-19 20:58S 41°17' E 174°00'0 0.0
2018-Jul-19 20:28S 41°17' E 174°00'0 0.0
2018-Jul-19 19:58S 41°17' E 174°00'0 0.0
2018-Jul-19 19:30S 41°17' E 174°00'0 0.2
2018-Jul-19 19:00S 41°17' E 174°00'5 9.8
2018-Jul-19 18:30S 41°14' E 174°06'612.3
2018-Jul-19 18:00S 41°14' E 174°14'612.2
2018-Jul-19 17:30S 41°14' E 174°22'816.2
2018-Jul-19 17:00S 41°19' E 174°31'815.2
2018-Jul-19 16:31S 41°22' E 174°40'914.8
2018-Jul-19 15:54S 41°19' E 174°51'411.0
2018-Jul-19 15:30S 41°16' E 174°47'0 0.1
2018-Jul-19 15:00S 41°16' E 174°47'0 0.0
2018-Jul-19 14:00S 41°16' E 174°47'0 0.0
2018-Jul-19 13:30S 41°16' E 174°47'3 7.1
2018-Jul-19 13:01S 41°17' E 174°51'714.0
2018-Jul-19 12:30S 41°24' E 174°47'714.8
2018-Jul-19 12:00S 41°22' E 174°37'815.8
2018-Jul-19 11:31S 41°18' E 174°28'816.8
2018-Jul-19 11:00S 41°13' E 174°19'612.8
2018-Jul-19 10:30S 41°15' E 174°11'612.6
2018-Jul-19 10:01S 41°15' E 174°03'3 5.6
2018-Jul-19 09:30S 41°17' E 174°00'0 0.0
2018-Jul-19 09:00S 41°17' E 174°00'0 0.0
2018-Jul-19 08:30S 41°17' E 174°00'0 0.0
2018-Jul-19 08:00S 41°17' E 174°00'0 0.0
2018-Jul-19 07:30S 41°17' E 174°00'0 0.0
2018-Jul-19 07:00S 41°17' E 174°00'1 1.5
2018-Jul-19 06:30S 41°16' E 174°01'612.8
2018-Jul-19 06:00S 41°14' E 174°08'611.4
2018-Jul-19 05:30S 41°14' E 174°16'713.9
2018-Jul-19 05:00S 41°16' E 174°25'917.4
2018-Jul-19 04:30S 41°20' E 174°35'815.5
2018-Jul-19 04:01S 41°23' E 174°45'713.8
2018-Jul-19 03:29S 41°17' E 174°50'3 5.2
2018-Jul-19 02:59S 41°16' E 174°47'0 0.0
2018-Jul-19 02:28S 41°16' E 174°47'0 0.0
2018-Jul-19 01:58S 41°16' E 174°47'0 0.0
2018-Jul-19 01:25S 41°16' E 174°47'0 0.0
2018-Jul-19 00:57S 41°16' E 174°47'1 1.6
2018-Jul-19 00:30S 41°16' E 174°48'714.1
2018-Jul-19 00:01S 41°23' E 174°50'917.8
2018-Jul-18 23:31S 41°23' E 174°38'917.3
2018-Jul-18 23:01S 41°18' E 174°28'817.0
2018-Jul-18 22:31S 41°13' E 174°19'713.4
2018-Jul-18 22:01S 41°15' E 174°11'612.9
2018-Jul-18 21:30S 41°15' E 174°02'2 4.7
2018-Jul-18 21:00S 41°17' E 174°00'0 0.0
2018-Jul-18 20:30S 41°17' E 174°00'0 0.0
2018-Jul-18 19:59S 41°17' E 174°00'0 0.0
2018-Jul-18 19:29S 41°17' E 174°00'0 0.3
2018-Jul-18 19:00S 41°17' E 174°01'612.3
2018-Jul-18 18:30S 41°14' E 174°07'612.1
2018-Jul-18 18:00S 41°14' E 174°15'713.3
2018-Jul-18 17:30S 41°15' E 174°24'816.7
2018-Jul-18 17:00S 41°20' E 174°33'713.6
2018-Jul-18 16:30S 41°23' E 174°42'814.4
2018-Jul-18 15:57S 41°19' E 174°51'4 9.0
2018-Jul-18 15:29S 41°16' E 174°47'0 0.0
2018-Jul-18 14:58S 41°16' E 174°47'0 0.0
2018-Jul-18 14:27S 41°16' E 174°47'0 0.0
2018-Jul-18 13:30S 41°16' E 174°47'610.4
2018-Jul-18 12:53S 41°22' E 174°50'614.5
2018-Jul-18 12:30S 41°24' E 174°43'715.0
2018-Jul-18 12:01S 41°21' E 174°34'816.7
2018-Jul-18 11:31S 41°16' E 174°25'1212.2
2018-Jul-18 10:30S 41°14' E 174°09'713.7
2018-Jul-18 10:00S 41°17' E 174°01'0 0.5
2018-Jul-18 09:31S 41°17' E 174°00'0 0.0
2018-Jul-18 09:01S 41°17' E 174°00'0 0.0
2018-Jul-18 08:31S 41°17' E 174°00'0 0.0
2018-Jul-18 08:01S 41°17' E 174°00'0 0.0
2018-Jul-18 07:30S 41°17' E 174°00'0 0.0
2018-Jul-18 07:01S 41°17' E 174°00'0 0.9
2018-Jul-18 06:31S 41°17' E 174°01'713.4
2018-Jul-18 06:01S 41°14' E 174°09'611.4
2018-Jul-18 05:31S 41°14' E 174°16'714.2
2018-Jul-18 05:00S 41°16' E 174°25'816.5
2018-Jul-18 04:30S 41°20' E 174°34'714.9
2018-Jul-18 04:00S 41°23' E 174°44'814.0
2018-Jul-18 03:27S 41°17' E 174°50'3 5.5
2018-Jul-18 02:59S 41°16' E 174°47'0 0.0
2018-Jul-18 02:29S 41°16' E 174°47'0 0.0
2018-Jul-18 01:56S 41°16' E 174°47'0 0.0
2018-Jul-18 01:28S 41°16' E 174°47'0 0.0
2018-Jul-18 00:58S 41°16' E 174°47'2 3.9
2018-Jul-18 00:30S 41°16' E 174°50'713.1
2018-Jul-18 00:00S 41°23' E 174°50'816.8
2018-Jul-17 23:30S 41°23' E 174°39'817.0
2018-Jul-17 23:00S 41°19' E 174°29'918.3
2018-Jul-17 22:30S 41°13' E 174°19'612.6
2018-Jul-17 22:00S 41°15' E 174°11'612.3
2018-Jul-17 21:31S 41°15' E 174°03'3 5.7
2018-Jul-17 20:58S 41°17' E 174°00'0 0.0
2018-Jul-17 20:28S 41°17' E 174°00'0 0.0
2018-Jul-17 20:00S 41°17' E 174°00'0 0.0
2018-Jul-17 19:30S 41°17' E 174°00'0 0.3
2018-Jul-17 19:00S 41°17' E 174°01'510.2
2018-Jul-17 18:30S 41°14' E 174°06'612.6
2018-Jul-17 18:00S 41°14' E 174°14'612.0
2018-Jul-17 17:31S 41°15' E 174°22'714.3
2018-Jul-17 17:01S 41°19' E 174°30'714.3
2018-Jul-17 16:31S 41°22' E 174°38'815.4
2018-Jul-17 16:00S 41°22' E 174°49'612.4
2018-Jul-17 15:31S 41°16' E 174°48'0 0.8
2018-Jul-17 15:00S 41°16' E 174°47'0 0.0
2018-Jul-17 14:30S 41°16' E 174°47'0 0.0
2018-Jul-17 14:00S 41°16' E 174°47'0 0.0
2018-Jul-17 13:30S 41°16' E 174°47'4 7.7
2018-Jul-17 12:56S 41°19' E 174°51'613.0
2018-Jul-17 12:31S 41°24' E 174°47'816.0
2018-Jul-17 12:01S 41°22' E 174°36'917.9
2018-Jul-17 11:30S 41°17' E 174°26'815.0
2018-Jul-17 11:01S 41°13' E 174°17'612.7
2018-Jul-17 10:30S 41°15' E 174°09'612.1
2018-Jul-17 10:00S 41°16' E 174°01'1 2.6
2018-Jul-17 09:29S 41°17' E 174°00'0 0.0
2018-Jul-17 08:59S 41°17' E 174°00'0 0.0
2018-Jul-17 08:28S 41°17' E 174°00'0 0.0
2018-Jul-17 07:58S 41°17' E 174°00'0 0.0
2018-Jul-17 07:28S 41°17' E 174°00'0 0.0
2018-Jul-17 07:00S 41°17' E 174°00'3 5.3
2018-Jul-17 06:31S 41°15' E 174°02'612.3
2018-Jul-17 06:01S 41°15' E 174°10'713.7
2018-Jul-17 05:31S 41°13' E 174°19'918.6
2018-Jul-17 05:01S 41°18' E 174°29'815.7
2018-Jul-17 04:31S 41°22' E 174°38'815.7
2018-Jul-17 04:00S 41°22' E 174°49'612.5
2018-Jul-17 03:30S 41°16' E 174°48'0 0.4
2018-Jul-17 02:58S 41°16' E 174°47'0 0.0
2018-Jul-17 02:28S 41°16' E 174°47'0 0.0
2018-Jul-17 01:58S 41°16' E 174°47'0 0.0
2018-Jul-17 01:30S 41°16' E 174°47'0 0.0
2018-Jul-17 01:00S 41°16' E 174°47'4 7.5
2018-Jul-17 00:25S 41°19' E 174°51'1213.0
2018-Jul-16 23:30S 41°21' E 174°35'714.4
2018-Jul-16 23:00S 41°18' E 174°28'816.4
2018-Jul-16 22:31S 41°13' E 174°19'713.0
2018-Jul-16 22:00S 41°15' E 174°11'612.4
2018-Jul-16 21:31S 41°15' E 174°03'3 5.4
2018-Jul-16 21:00S 41°17' E 174°00'0 0.0
2018-Jul-16 20:30S 41°17' E 174°00'0 0.0
2018-Jul-16 20:00S 41°17' E 174°00'0 0.0
2018-Jul-16 19:30S 41°17' E 174°00'2 3.6
2018-Jul-16 19:00S 41°15' E 174°02'612.2
2018-Jul-16 18:30S 41°15' E 174°09'714.2
2018-Jul-16 18:00S 41°13' E 174°19'816.4
2018-Jul-16 17:30S 41°17' E 174°28'815.0
2018-Jul-16 17:00S 41°21' E 174°36'815.5
2018-Jul-16 16:30S 41°23' E 174°46'612.8
2018-Jul-16 16:00S 41°17' E 174°50'2 3.9
2018-Jul-16 15:30S 41°16' E 174°47'0 0.0
2018-Jul-16 15:00S 41°16' E 174°47'0 0.0
2018-Jul-16 14:30S 41°16' E 174°47'0 0.0
2018-Jul-16 13:59S 41°16' E 174°47'0 0.5
2018-Jul-16 13:30S 41°16' E 174°47'610.1
2018-Jul-16 12:55S 41°22' E 174°50'615.9
2018-Jul-16 12:30S 41°23' E 174°42'1019.1
2018-Jul-16 12:00S 41°19' E 174°31'918.5
2018-Jul-16 11:30S 41°14' E 174°21'712.9
2018-Jul-16 11:00S 41°15' E 174°12'612.7
2018-Jul-16 10:31S 41°15' E 174°04'4 7.1
2018-Jul-16 10:01S 41°17' E 174°00'0 0.0
2018-Jul-16 09:30S 41°17' E 174°00'0 0.0
2018-Jul-16 09:01S 41°17' E 174°00'0 0.0
2018-Jul-16 08:31S 41°17' E 174°00'0 0.0
2018-Jul-16 08:00S 41°17' E 174°00'0 0.0
2018-Jul-16 07:31S 41°17' E 174°00'0 0.0
2018-Jul-16 07:01S 41°17' E 174°00'2 3.3
2018-Jul-16 06:30S 41°16' E 174°02'612.1
2018-Jul-16 06:01S 41°15' E 174°09'714.5
2018-Jul-16 05:31S 41°13' E 174°19'815.4
2018-Jul-16 05:00S 41°17' E 174°27'714.5
2018-Jul-16 04:30S 41°21' E 174°35'612.2
2018-Jul-16 04:00S 41°23' E 174°43'813.8
2018-Jul-16 03:25S 41°17' E 174°51'3 6.4
2018-Jul-16 02:59S 41°16' E 174°47'0 0.0
2018-Jul-16 02:28S 41°16' E 174°47'0 0.0
2018-Jul-16 01:55S 41°16' E 174°47'0 0.0
2018-Jul-16 01:28S 41°16' E 174°47'0 0.0
2018-Jul-16 00:58S 41°16' E 174°47'0 0.0
2018-Jul-16 00:27S 41°16' E 174°47'0 0.0
2018-Jul-16 00:00S 41°16' E 174°47'0 0.0
2018-Jul-15 23:27S 41°16' E 174°47'0 0.0
2018-Jul-15 22:59S 41°16' E 174°47'0 0.0
2018-Jul-15 22:29S 41°16' E 174°47'0 0.0
2018-Jul-15 21:56S 41°16' E 174°47'0 0.0
2018-Jul-15 21:25S 41°16' E 174°47'0 0.0
2018-Jul-15 20:58S 41°16' E 174°47'2 2.7
2018-Jul-15 20:19S 41°15' E 174°50'0 0.2
2018-Jul-15 19:58S 41°16' E 174°50'0 0.1
2018-Jul-15 19:30S 41°16' E 174°50'0 0.0
2018-Jul-15 19:00S 41°16' E 174°50'0 0.0
2018-Jul-15 18:30S 41°16' E 174°50'0 0.0
2018-Jul-15 17:59S 41°16' E 174°50'0 0.0
2018-Jul-15 17:29S 41°16' E 174°50'0 0.0
2018-Jul-15 16:59S 41°16' E 174°50'0 0.0
2018-Jul-15 16:29S 41°16' E 174°50'0 0.0
2018-Jul-15 15:58S 41°16' E 174°50'0 0.0
2018-Jul-15 15:28S 41°16' E 174°50'0 0.0
2018-Jul-15 14:59S 41°16' E 174°50'2 3.8
2018-Jul-15 14:30S 41°16' E 174°47'0 0.3
2018-Jul-15 14:00S 41°16' E 174°47'2 3.5
2018-Jul-15 13:30S 41°16' E 174°50'611.2
2018-Jul-15 13:00S 41°22' E 174°50'511.0
2018-Jul-15 12:30S 41°24' E 174°43'713.4
2018-Jul-15 12:01S 41°21' E 174°35'713.4
2018-Jul-15 11:30S 41°18' E 174°27'713.5
2018-Jul-15 11:01S 41°14' E 174°20'612.9
2018-Jul-15 10:30S 41°15' E 174°12'612.9
2018-Jul-15 10:01S 41°15' E 174°03'3 6.1
2018-Jul-15 09:29S 41°17' E 174°00'0 0.0
2018-Jul-15 08:59S 41°17' E 174°00'0 0.0
2018-Jul-15 08:29S 41°17' E 174°00'0 0.4
2018-Jul-15 08:00S 41°17' E 174°00'713.2
2018-Jul-15 07:30S 41°14' E 174°08'713.2
2018-Jul-15 07:00S 41°13' E 174°17'816.4
2018-Jul-15 06:30S 41°17' E 174°27'917.2
2018-Jul-15 06:00S 41°21' E 174°36'917.3
2018-Jul-15 05:30S 41°22' E 174°48'611.5
2018-Jul-15 05:00S 41°17' E 174°49'2 3.0
2018-Jul-15 04:29S 41°16' E 174°47'0 0.0
2018-Jul-15 03:59S 41°16' E 174°47'0 0.0
2018-Jul-15 03:29S 41°16' E 174°47'0 0.0
2018-Jul-15 02:59S 41°16' E 174°47'0 0.0
2018-Jul-15 02:28S 41°16' E 174°47'0 0.0
2018-Jul-15 01:58S 41°16' E 174°47'0 0.0
2018-Jul-15 01:28S 41°16' E 174°47'0 0.0
2018-Jul-15 01:00S 41°16' E 174°47'3 5.4
2018-Jul-15 00:31S 41°17' E 174°51'714.4
2018-Jul-15 00:00S 41°24' E 174°48'816.8
2018-Jul-14 23:30S 41°22' E 174°37'816.2
2018-Jul-14 23:00S 41°18' E 174°28'815.8
2018-Jul-14 22:31S 41°13' E 174°20'714.0
2018-Jul-14 22:00S 41°15' E 174°11'612.7
2018-Jul-14 21:30S 41°15' E 174°02'2 4.8
2018-Jul-14 21:00S 41°17' E 174°00'0 0.0
2018-Jul-14 20:30S 41°17' E 174°00'0 0.0
2018-Jul-14 20:00S 41°17' E 174°00'0 0.0
2018-Jul-14 19:30S 41°17' E 174°00'0 0.5
2018-Jul-14 19:00S 41°17' E 174°01'510.4
2018-Jul-14 18:30S 41°14' E 174°06'713.6
2018-Jul-14 18:00S 41°14' E 174°15'713.8
2018-Jul-14 17:30S 41°15' E 174°24'815.9
2018-Jul-14 17:00S 41°20' E 174°33'816.3
2018-Jul-14 16:30S 41°23' E 174°43'813.2
2018-Jul-14 15:55S 41°18' E 174°51'3 8.1
2018-Jul-14 15:30S 41°16' E 174°47'0 0.0
2018-Jul-14 15:00S 41°16' E 174°47'0 0.0
2018-Jul-14 14:30S 41°16' E 174°47'3 2.7
2018-Jul-14 13:30S 41°17' E 174°51'714.1
2018-Jul-14 13:00S 41°23' E 174°49'916.8
2018-Jul-14 12:30S 41°23' E 174°38'816.7
2018-Jul-14 12:00S 41°18' E 174°28'815.3
2018-Jul-14 11:30S 41°14' E 174°20'815.2
2018-Jul-14 11:00S 41°15' E 174°10'612.7
2018-Jul-14 10:30S 41°15' E 174°02'2 4.1
2018-Jul-14 10:00S 41°17' E 174°00'0 0.0
2018-Jul-14 09:30S 41°17' E 174°00'0 0.0
2018-Jul-14 09:00S 41°17' E 174°00'0 0.0
2018-Jul-14 08:30S 41°17' E 174°00'0 0.0
2018-Jul-14 08:00S 41°17' E 174°00'0 0.0
2018-Jul-14 07:30S 41°17' E 174°00'0 0.0
2018-Jul-14 07:00S 41°17' E 174°00'2 3.4
2018-Jul-14 06:30S 41°16' E 174°02'612.0
2018-Jul-14 06:01S 41°15' E 174°09'815.4
2018-Jul-14 05:30S 41°13' E 174°19'714.9
2018-Jul-14 05:00S 41°17' E 174°28'714.3
2018-Jul-14 04:31S 41°21' E 174°36'917.4
2018-Jul-14 04:00S 41°22' E 174°47'612.3
2018-Jul-14 03:31S 41°16' E 174°49'2 3.1
2018-Jul-14 03:00S 41°16' E 174°47'0 0.0
2018-Jul-14 02:30S 41°16' E 174°47'0 0.0
2018-Jul-14 02:00S 41°16' E 174°47'0 0.0
2018-Jul-14 01:30S 41°16' E 174°47'0 0.0
2018-Jul-14 01:00S 41°16' E 174°47'3 5.5
2018-Jul-14 00:29S 41°17' E 174°51'715.0
2018-Jul-14 00:00S 41°23' E 174°48'918.7
2018-Jul-13 23:30S 41°22' E 174°36'917.9
2018-Jul-13 23:01S 41°17' E 174°26'815.4
2018-Jul-13 22:31S 41°14' E 174°16'713.1
2018-Jul-13 22:00S 41°14' E 174°08'612.6
2018-Jul-13 21:30S 41°17' E 174°00'0 0.0
2018-Jul-13 21:00S 41°17' E 174°00'0 0.0
2018-Jul-13 20:30S 41°17' E 174°00'0 0.0
2018-Jul-13 19:59S 41°17' E 174°00'0 0.0
2018-Jul-13 19:29S 41°17' E 174°00'1 1.6
2018-Jul-13 19:00S 41°16' E 174°01'713.2
2018-Jul-13 18:31S 41°13' E 174°09'713.5
2018-Jul-13 18:00S 41°13' E 174°18'917.6
2018-Jul-13 17:31S 41°17' E 174°28'918.3
2018-Jul-13 17:00S 41°22' E 174°38'1015.7
2018-Jul-13 16:22S 41°19' E 174°51'411.7
2018-Jul-13 16:01S 41°16' E 174°47'0 0.3
2018-Jul-13 15:30S 41°16' E 174°47'0 0.0
2018-Jul-13 15:01S 41°16' E 174°47'0 0.0
2018-Jul-13 14:30S 41°16' E 174°47'0 0.0
2018-Jul-13 13:30S 41°16' E 174°47'4 8.2
2018-Jul-13 12:58S 41°19' E 174°51'612.5
2018-Jul-13 12:30S 41°24' E 174°46'815.9
2018-Jul-13 12:00S 41°22' E 174°36'918.1
2018-Jul-13 11:30S 41°17' E 174°26'714.8
2018-Jul-13 11:00S 41°13' E 174°17'713.7
2018-Jul-13 10:30S 41°14' E 174°08'713.0
2018-Jul-13 10:00S 41°17' E 174°00'0 0.0
2018-Jul-13 09:28S 41°17' E 174°00'0 0.0
2018-Jul-13 09:00S 41°17' E 174°00'0 0.0
2018-Jul-13 08:30S 41°17' E 174°00'0 0.0
2018-Jul-13 08:00S 41°17' E 174°00'0 0.0
2018-Jul-13 07:29S 41°17' E 174°00'0 0.0
2018-Jul-13 07:00S 41°17' E 174°00'3 6.7
2018-Jul-13 06:30S 41°15' E 174°03'612.5
2018-Jul-13 06:00S 41°14' E 174°12'714.4
2018-Jul-13 05:30S 41°14' E 174°21'815.6
2018-Jul-13 05:00S 41°18' E 174°30'714.7
2018-Jul-13 04:31S 41°22' E 174°38'815.5
2018-Jul-13 04:01S 41°22' E 174°49'612.3
2018-Jul-13 03:30S 41°16' E 174°48'0 0.6
2018-Jul-13 02:59S 41°16' E 174°47'0 0.0
2018-Jul-13 02:29S 41°16' E 174°47'0 0.0
2018-Jul-13 01:58S 41°16' E 174°47'0 0.0
2018-Jul-13 01:28S 41°16' E 174°47'0 0.0
2018-Jul-13 00:58S 41°16' E 174°47'1 2.3
2018-Jul-13 00:30S 41°16' E 174°49'713.1
2018-Jul-13 00:00S 41°23' E 174°50'815.2
2018-Jul-12 23:30S 41°23' E 174°40'917.3
2018-Jul-12 23:00S 41°19' E 174°30'917.5
2018-Jul-12 22:30S 41°14' E 174°20'714.9
2018-Jul-12 22:00S 41°15' E 174°11'612.7
2018-Jul-12 21:30S 41°15' E 174°02'2 4.6
2018-Jul-12 21:00S 41°17' E 174°00'0 0.0
2018-Jul-12 20:30S 41°17' E 174°00'0 0.0
2018-Jul-12 20:00S 41°17' E 174°00'0 0.0
2018-Jul-12 19:29S 41°17' E 174°00'0 0.2
2018-Jul-12 18:59S 41°17' E 174°00'4 8.9
2018-Jul-12 18:30S 41°14' E 174°05'713.3
2018-Jul-12 18:00S 41°14' E 174°13'714.6
2018-Jul-12 17:30S 41°15' E 174°23'917.6
2018-Jul-12 17:00S 41°20' E 174°33'1019.1
2018-Jul-12 16:30S 41°23' E 174°45'713.6
2018-Jul-12 16:00S 41°17' E 174°50'3 4.2
2018-Jul-12 15:23S 41°16' E 174°47'0 0.0
2018-Jul-12 14:58S 41°16' E 174°47'0 0.0
2018-Jul-12 14:28S 41°16' E 174°47'0 0.0
2018-Jul-12 13:58S 41°16' E 174°47'0 0.0
2018-Jul-12 13:30S 41°16' E 174°47'4 7.3
2018-Jul-12 13:00S 41°18' E 174°51'713.4
2018-Jul-12 12:30S 41°24' E 174°47'816.9
2018-Jul-12 12:00S 41°22' E 174°36'918.1
2018-Jul-12 11:30S 41°17' E 174°26'714.6
2018-Jul-12 11:01S 41°13' E 174°17'713.9
2018-Jul-12 10:31S 41°14' E 174°08'612.6
2018-Jul-12 10:01S 41°17' E 174°00'0 0.0
2018-Jul-12 09:31S 41°17' E 174°00'0 0.0
2018-Jul-12 09:01S 41°17' E 174°00'0 0.0
2018-Jul-12 08:31S 41°17' E 174°00'0 0.0
2018-Jul-12 08:01S 41°17' E 174°00'0 0.0
2018-Jul-12 07:30S 41°17' E 174°00'0 0.0
2018-Jul-12 07:01S 41°17' E 174°00'2 4.8
2018-Jul-12 06:31S 41°15' E 174°02'  

Dump ship's entire track history